EZY576N EGKK-EGPH
Flight info
| Callsign | EZY576N |
|---|---|
| Flight time | 1h 4m |
| Altitude | 36000 |
| Route | LAM L10 BPK UN601 RIBEL DCT INPIP |
| Aircraft | A320/M-SDE2E3FGHIJ1RWXYZ/LB1 |
Departure
| Time | 2026-05-05 08:59 |
|---|---|
| Airport | London Gatwick Airport (EGKK) |
Arrival
| Time | 2026-05-05 10:03 |
|---|---|
| Airport | Edinburgh Airport (EGPH) |
| Time | Latitude | Longitude | Altitude | Speed | Heading |
|---|---|---|---|---|---|
| 2026-05-05 08:26 | 51.15470 | -0.17091 | 205 ft | 0 kts | 348° |
| 2026-05-05 08:48 | 51.15466 | -0.17089 | 205 ft | 2 kts | 348° |
| 2026-05-05 08:49 | 51.15449 | -0.17084 | 215 ft | 3 kts | 345° |
| 2026-05-05 08:49 | 51.15433 | -0.17071 | 207 ft | 3 kts | 307° |
| 2026-05-05 08:49 | 51.15425 | -0.17046 | 208 ft | 3 kts | 269° |
| 2026-05-05 08:49 | 51.15427 | -0.17027 | 205 ft | 0 kts | 262° |
| 2026-05-05 08:50 | 51.15426 | -0.17001 | 209 ft | 3 kts | 274° |
| 2026-05-05 08:50 | 51.15426 | -0.16989 | 205 ft | 0 kts | 257° |
| 2026-05-05 08:52 | 51.15425 | -0.16992 | 205 ft | 2 kts | 257° |
| 2026-05-05 08:52 | 51.15419 | -0.17036 | 205 ft | 10 kts | 257° |
| 2026-05-05 08:52 | 51.15383 | -0.17212 | 210 ft | 19 kts | 259° |
| 2026-05-05 08:52 | 51.15323 | -0.17378 | 209 ft | 17 kts | 218° |
| 2026-05-05 08:53 | 51.15288 | -0.17543 | 208 ft | 16 kts | 258° |
| 2026-05-05 08:53 | 51.15264 | -0.17715 | 209 ft | 16 kts | 257° |
| 2026-05-05 08:53 | 51.15241 | -0.17883 | 209 ft | 15 kts | 257° |
| 2026-05-05 08:53 | 51.15215 | -0.18084 | 214 ft | 22 kts | 259° |
| 2026-05-05 08:54 | 51.15184 | -0.18349 | 213 ft | 26 kts | 259° |
| 2026-05-05 08:54 | 51.15143 | -0.18645 | 211 ft | 24 kts | 259° |
| 2026-05-05 08:54 | 51.15113 | -0.18868 | 214 ft | 22 kts | 259° |
| 2026-05-05 08:54 | 51.15087 | -0.19121 | 214 ft | 25 kts | 261° |
| 2026-05-05 08:55 | 51.15042 | -0.19395 | 214 ft | 27 kts | 259° |
| 2026-05-05 08:55 | 51.14998 | -0.19700 | 213 ft | 30 kts | 257° |
| 2026-05-05 08:55 | 51.14953 | -0.20034 | 214 ft | 32 kts | 258° |
| 2026-05-05 08:55 | 51.14913 | -0.20335 | 215 ft | 25 kts | 258° |
| 2026-05-05 08:56 | 51.14875 | -0.20590 | 205 ft | 15 kts | 252° |
| 2026-05-05 08:56 | 51.14844 | -0.20648 | 207 ft | 6 kts | 181° |
| 2026-05-05 08:56 | 51.14779 | -0.20686 | 211 ft | 17 kts | 211° |
| 2026-05-05 08:56 | 51.14698 | -0.20720 | 208 ft | 9 kts | 169° |
| 2026-05-05 08:57 | 51.14681 | -0.20715 | 206 ft | 0 kts | 169° |
| 2026-05-05 08:57 | 51.14668 | -0.20710 | 207 ft | 4 kts | 169° |
| 2026-05-05 08:57 | 51.14637 | -0.20700 | 214 ft | 5 kts | 167° |
| 2026-05-05 08:57 | 51.14595 | -0.20642 | 211 ft | 12 kts | 100° |
| 2026-05-05 08:58 | 51.14601 | -0.20587 | 214 ft | 0 kts | 78° |
| 2026-05-05 08:58 | 51.14636 | -0.20340 | 209 ft | 62 kts | 77° |
| 2026-05-05 08:58 | 51.14783 | -0.19280 | 208 ft | 130 kts | 80° |
| 2026-05-05 08:58 | 51.14991 | -0.17648 | 484 ft | 159 kts | 75° |
| 2026-05-05 08:59 | 51.15182 | -0.15945 | 1366 ft | 153 kts | 77° |
| 2026-05-05 08:59 | 51.15360 | -0.14279 | 2107 ft | 151 kts | 76° |
| 2026-05-05 08:59 | 51.15555 | -0.12646 | 2771 ft | 151 kts | 73° |
| 2026-05-05 08:59 | 51.15848 | -0.11042 | 3380 ft | 151 kts | 67° |
| 2026-05-05 09:00 | 51.16228 | -0.09410 | 3768 ft | 168 kts | 71° |
| 2026-05-05 09:00 | 51.16562 | -0.07515 | 4103 ft | 187 kts | 72° |
| 2026-05-05 09:00 | 51.17029 | -0.05531 | 4607 ft | 195 kts | 60° |
| 2026-05-05 09:00 | 51.17876 | -0.03765 | 5088 ft | 209 kts | 49° |
| 2026-05-05 09:01 | 51.18928 | -0.01969 | 5556 ft | 228 kts | 48° |
| 2026-05-05 09:01 | 51.19954 | 0.00022 | 6076 ft | 245 kts | 51° |
| 2026-05-05 09:01 | 51.21037 | 0.02258 | 6629 ft | 262 kts | 52° |
| 2026-05-05 09:01 | 51.22156 | 0.04610 | 7424 ft | 266 kts | 52° |
| 2026-05-05 09:02 | 51.23260 | 0.06973 | 8361 ft | 266 kts | 53° |
| 2026-05-05 09:02 | 51.24353 | 0.09372 | 9244 ft | 268 kts | 56° |
| 2026-05-05 09:02 | 51.25242 | 0.12006 | 10040 ft | 275 kts | 67° |
| 2026-05-05 09:02 | 51.25808 | 0.14989 | 10578 ft | 288 kts | 77° |
| 2026-05-05 09:03 | 51.26171 | 0.18169 | 11291 ft | 293 kts | 80° |
| 2026-05-05 09:03 | 51.26467 | 0.21396 | 12083 ft | 296 kts | 81° |
| 2026-05-05 09:03 | 51.26667 | 0.23602 | 12621 ft | 297 kts | 81° |
| 2026-05-05 09:03 | 51.26980 | 0.26875 | 13516 ft | 300 kts | 81° |
| 2026-05-05 09:04 | 51.27459 | 0.30125 | 14247 ft | 302 kts | 66° |
| 2026-05-05 09:04 | 51.28626 | 0.32913 | 14922 ft | 305 kts | 44° |
| 2026-05-05 09:04 | 51.30401 | 0.34779 | 15537 ft | 310 kts | 21° |
| 2026-05-05 09:04 | 51.32497 | 0.35418 | 16135 ft | 316 kts | 359° |
| 2026-05-05 09:05 | 51.34654 | 0.34717 | 16732 ft | 321 kts | 339° |
| 2026-05-05 09:05 | 51.36781 | 0.33347 | 17215 ft | 327 kts | 338° |
| 2026-05-05 09:05 | 51.38899 | 0.31963 | 17835 ft | 332 kts | 338° |
| 2026-05-05 09:05 | 51.41053 | 0.30554 | 18441 ft | 336 kts | 337° |
| 2026-05-05 09:06 | 51.43196 | 0.29150 | 18970 ft | 340 kts | 337° |
| 2026-05-05 09:06 | 51.45427 | 0.27692 | 19528 ft | 343 kts | 337° |
| 2026-05-05 09:06 | 51.47622 | 0.26264 | 20058 ft | 346 kts | 337° |
| 2026-05-05 09:06 | 51.49865 | 0.24807 | 20615 ft | 350 kts | 337° |
| 2026-05-05 09:07 | 51.52156 | 0.23314 | 21163 ft | 352 kts | 337° |
| 2026-05-05 09:07 | 51.54429 | 0.21827 | 21708 ft | 355 kts | 337° |
| 2026-05-05 09:07 | 51.56740 | 0.20314 | 22244 ft | 358 kts | 337° |
| 2026-05-05 09:07 | 51.59027 | 0.18821 | 22776 ft | 361 kts | 337° |
| 2026-05-05 09:08 | 51.61394 | 0.17250 | 23310 ft | 364 kts | 333° |
| 2026-05-05 09:08 | 51.63552 | 0.15226 | 23803 ft | 365 kts | 322° |
| 2026-05-05 09:08 | 51.65463 | 0.12524 | 24129 ft | 370 kts | 310° |
| 2026-05-05 09:08 | 51.67038 | 0.09179 | 24249 ft | 380 kts | 301° |
| 2026-05-05 09:09 | 51.68515 | 0.05488 | 24366 ft | 393 kts | 301° |
| 2026-05-05 09:09 | 51.70016 | 0.01732 | 24511 ft | 404 kts | 301° |
| 2026-05-05 09:09 | 51.71544 | -0.02098 | 24821 ft | 408 kts | 300° |
| 2026-05-05 09:09 | 51.73092 | -0.05947 | 25225 ft | 411 kts | 303° |
| 2026-05-05 09:10 | 51.74918 | -0.09527 | 25657 ft | 415 kts | 312° |
| 2026-05-05 09:10 | 51.77119 | -0.12586 | 26070 ft | 420 kts | 322° |
| 2026-05-05 09:10 | 51.79617 | -0.15081 | 26453 ft | 424 kts | 327° |
| 2026-05-05 09:10 | 51.82168 | -0.17479 | 26831 ft | 426 kts | 327° |
| 2026-05-05 09:11 | 51.84728 | -0.19909 | 27226 ft | 428 kts | 326° |
| 2026-05-05 09:11 | 51.87294 | -0.22364 | 27607 ft | 430 kts | 326° |
| 2026-05-05 09:11 | 51.89873 | -0.24846 | 27981 ft | 432 kts | 326° |
| 2026-05-05 09:11 | 51.92430 | -0.27309 | 28351 ft | 434 kts | 326° |
| 2026-05-05 09:12 | 51.95033 | -0.29812 | 28708 ft | 436 kts | 326° |
| 2026-05-05 09:12 | 51.97686 | -0.32360 | 29077 ft | 439 kts | 326° |
| 2026-05-05 09:12 | 52.00285 | -0.34856 | 29420 ft | 441 kts | 325° |
| 2026-05-05 09:12 | 52.02922 | -0.37390 | 29783 ft | 443 kts | 325° |
| 2026-05-05 09:13 | 52.05584 | -0.39953 | 30115 ft | 445 kts | 325° |
| 2026-05-05 09:13 | 52.08253 | -0.42526 | 30391 ft | 447 kts | 326° |
| 2026-05-05 09:13 | 52.10933 | -0.45109 | 30660 ft | 449 kts | 326° |
| 2026-05-05 09:13 | 52.13623 | -0.47707 | 30923 ft | 451 kts | 326° |
| 2026-05-05 09:14 | 52.16323 | -0.50321 | 31184 ft | 452 kts | 326° |
| 2026-05-05 09:14 | 52.19031 | -0.52952 | 31482 ft | 453 kts | 326° |
| 2026-05-05 09:14 | 52.21734 | -0.55581 | 31864 ft | 452 kts | 327° |
| 2026-05-05 09:14 | 52.24428 | -0.58204 | 32251 ft | 451 kts | 327° |
| 2026-05-05 09:15 | 52.27117 | -0.60824 | 32629 ft | 450 kts | 327° |
| 2026-05-05 09:15 | 52.29798 | -0.63443 | 33004 ft | 449 kts | 328° |
| 2026-05-05 09:15 | 52.32473 | -0.66060 | 33380 ft | 448 kts | 328° |
| 2026-05-05 09:15 | 52.35142 | -0.68672 | 33761 ft | 447 kts | 328° |
| 2026-05-05 09:16 | 52.37807 | -0.71284 | 34102 ft | 446 kts | 328° |
| 2026-05-05 09:16 | 52.40472 | -0.73896 | 34383 ft | 446 kts | 328° |
| 2026-05-05 09:16 | 52.43138 | -0.76507 | 34668 ft | 446 kts | 328° |
| 2026-05-05 09:16 | 52.45795 | -0.79115 | 34950 ft | 445 kts | 328° |
| 2026-05-05 09:17 | 52.48446 | -0.81725 | 35216 ft | 445 kts | 328° |
| 2026-05-05 09:17 | 52.51101 | -0.84345 | 35472 ft | 445 kts | 328° |
| 2026-05-05 09:17 | 52.53752 | -0.86966 | 35709 ft | 444 kts | 328° |
| 2026-05-05 09:17 | 52.56400 | -0.89591 | 35938 ft | 445 kts | 328° |
| 2026-05-05 09:18 | 52.59041 | -0.92216 | 36010 ft | 440 kts | 328° |
| 2026-05-05 09:18 | 52.64259 | -0.97405 | 36024 ft | 438 kts | 328° |
| 2026-05-05 09:19 | 52.69473 | -1.02594 | 36026 ft | 438 kts | 328° |
| 2026-05-05 09:19 | 52.74684 | -1.07794 | 36028 ft | 438 kts | 328° |
| 2026-05-05 09:20 | 52.79883 | -1.13004 | 36028 ft | 438 kts | 328° |
| 2026-05-05 09:20 | 52.85089 | -1.18239 | 36039 ft | 437 kts | 328° |
| 2026-05-05 09:21 | 52.90285 | -1.23472 | 36038 ft | 437 kts | 328° |
| 2026-05-05 09:21 | 52.95475 | -1.28706 | 36036 ft | 437 kts | 328° |
| 2026-05-05 09:22 | 53.00657 | -1.33969 | 36038 ft | 437 kts | 328° |
| 2026-05-05 09:22 | 53.05837 | -1.39239 | 36040 ft | 436 kts | 328° |
| 2026-05-05 09:23 | 53.11008 | -1.44498 | 36042 ft | 435 kts | 328° |
| 2026-05-05 09:23 | 53.16174 | -1.49760 | 36048 ft | 435 kts | 328° |
| 2026-05-05 09:24 | 53.21327 | -1.55046 | 36045 ft | 435 kts | 327° |
| 2026-05-05 09:24 | 53.26463 | -1.60342 | 36051 ft | 434 kts | 327° |
| 2026-05-05 09:25 | 53.31596 | -1.65635 | 36059 ft | 433 kts | 327° |
| 2026-05-05 09:25 | 53.36716 | -1.70924 | 36058 ft | 432 kts | 327° |
| 2026-05-05 09:26 | 53.41822 | -1.76213 | 36060 ft | 431 kts | 327° |
| 2026-05-05 09:26 | 53.46923 | -1.81510 | 36065 ft | 431 kts | 327° |
| 2026-05-05 09:27 | 53.52011 | -1.86803 | 36064 ft | 430 kts | 327° |
| 2026-05-05 09:27 | 53.57083 | -1.92114 | 36062 ft | 429 kts | 327° |
| 2026-05-05 09:28 | 53.61934 | -1.97209 | 36057 ft | 429 kts | 327° |
| 2026-05-05 09:28 | 53.66987 | -2.02515 | 36050 ft | 428 kts | 327° |
| 2026-05-05 09:29 | 53.72023 | -2.07832 | 36050 ft | 427 kts | 327° |
| 2026-05-05 09:29 | 53.77334 | -2.12350 | 36052 ft | 429 kts | 336° |
| 2026-05-05 09:30 | 53.82869 | -2.16110 | 36052 ft | 429 kts | 336° |
| 2026-05-05 09:30 | 53.88395 | -2.19877 | 36056 ft | 428 kts | 336° |
| 2026-05-05 09:31 | 53.93919 | -2.23664 | 36058 ft | 428 kts | 336° |
| 2026-05-05 09:31 | 53.99434 | -2.27466 | 36060 ft | 428 kts | 336° |
| 2026-05-05 09:32 | 54.04950 | -2.31261 | 36060 ft | 427 kts | 336° |
| 2026-05-05 09:32 | 54.10452 | -2.35057 | 36058 ft | 426 kts | 336° |
| 2026-05-05 09:33 | 54.15945 | -2.38864 | 36059 ft | 426 kts | 335° |
| 2026-05-05 09:33 | 54.21432 | -2.42691 | 36059 ft | 426 kts | 335° |
| 2026-05-05 09:33 | 54.24185 | -2.44610 | 35871 ft | 428 kts | 335° |
| 2026-05-05 09:34 | 54.26930 | -2.46522 | 35621 ft | 425 kts | 335° |
| 2026-05-05 09:34 | 54.29653 | -2.48417 | 35371 ft | 422 kts | 335° |
| 2026-05-05 09:34 | 54.32369 | -2.50308 | 35123 ft | 420 kts | 335° |
| 2026-05-05 09:34 | 54.35073 | -2.52198 | 34880 ft | 418 kts | 335° |
| 2026-05-05 09:35 | 54.37753 | -2.54080 | 34629 ft | 415 kts | 335° |
| 2026-05-05 09:35 | 54.43062 | -2.57827 | 34113 ft | 409 kts | 335° |
| 2026-05-05 09:35 | 54.45685 | -2.59680 | 33595 ft | 406 kts | 335° |
| 2026-05-05 09:36 | 54.48289 | -2.61518 | 33098 ft | 402 kts | 335° |
| 2026-05-05 09:36 | 54.50870 | -2.63337 | 32621 ft | 399 kts | 334° |
| 2026-05-05 09:36 | 54.53431 | -2.65145 | 32146 ft | 396 kts | 334° |
| 2026-05-05 09:36 | 54.55967 | -2.66938 | 31678 ft | 393 kts | 334° |
| 2026-05-05 09:37 | 54.58479 | -2.68720 | 31215 ft | 390 kts | 334° |
| 2026-05-05 09:37 | 54.60980 | -2.70496 | 30760 ft | 387 kts | 334° |
| 2026-05-05 09:37 | 54.63460 | -2.72261 | 30308 ft | 384 kts | 334° |
| 2026-05-05 09:37 | 54.65918 | -2.74012 | 29835 ft | 381 kts | 334° |
| 2026-05-05 09:38 | 54.68353 | -2.75746 | 29415 ft | 376 kts | 334° |
| 2026-05-05 09:38 | 54.70726 | -2.77439 | 28996 ft | 372 kts | 333° |
| 2026-05-05 09:38 | 54.73130 | -2.79154 | 28588 ft | 367 kts | 333° |
| 2026-05-05 09:38 | 54.75445 | -2.80809 | 28183 ft | 362 kts | 333° |
| 2026-05-05 09:39 | 54.77788 | -2.82487 | 27784 ft | 358 kts | 333° |
| 2026-05-05 09:39 | 54.80078 | -2.84136 | 27380 ft | 354 kts | 333° |
| 2026-05-05 09:39 | 54.82340 | -2.85771 | 26981 ft | 351 kts | 333° |
| 2026-05-05 09:39 | 54.84582 | -2.87393 | 26581 ft | 348 kts | 333° |
| 2026-05-05 09:40 | 54.86808 | -2.89001 | 26171 ft | 345 kts | 333° |
| 2026-05-05 09:40 | 54.89019 | -2.90598 | 25741 ft | 347 kts | 333° |
| 2026-05-05 09:40 | 54.91303 | -2.92256 | 25226 ft | 358 kts | 333° |
| 2026-05-05 09:40 | 54.93569 | -2.93896 | 24737 ft | 358 kts | 333° |
| 2026-05-05 09:41 | 54.95896 | -2.95574 | 24229 ft | 357 kts | 333° |
| 2026-05-05 09:41 | 54.98160 | -2.97207 | 23737 ft | 357 kts | 333° |
| 2026-05-05 09:41 | 55.00456 | -2.98867 | 23180 ft | 357 kts | 333° |
| 2026-05-05 09:41 | 55.02742 | -3.00522 | 22677 ft | 355 kts | 333° |
| 2026-05-05 09:42 | 55.05015 | -3.02173 | 22189 ft | 353 kts | 333° |
| 2026-05-05 09:42 | 55.07276 | -3.03823 | 21677 ft | 352 kts | 333° |
| 2026-05-05 09:42 | 55.09527 | -3.05468 | 21195 ft | 350 kts | 333° |
| 2026-05-05 09:42 | 55.11774 | -3.07111 | 20716 ft | 349 kts | 334° |
| 2026-05-05 09:43 | 55.14015 | -3.08748 | 20215 ft | 349 kts | 334° |
| 2026-05-05 09:43 | 55.16252 | -3.10382 | 19644 ft | 351 kts | 334° |
| 2026-05-05 09:43 | 55.18502 | -3.12029 | 19252 ft | 348 kts | 334° |
| 2026-05-05 09:43 | 55.20720 | -3.13659 | 18870 ft | 344 kts | 334° |
| 2026-05-05 09:44 | 55.22923 | -3.15284 | 18449 ft | 343 kts | 334° |
| 2026-05-05 09:44 | 55.25110 | -3.16899 | 18015 ft | 341 kts | 334° |
| 2026-05-05 09:44 | 55.27281 | -3.18499 | 17748 ft | 332 kts | 334° |
| 2026-05-05 09:44 | 55.29380 | -3.19830 | 17612 ft | 314 kts | 344° |
| 2026-05-05 09:45 | 55.31506 | -3.20167 | 17363 ft | 304 kts | 359° |
| 2026-05-05 09:45 | 55.33598 | -3.19853 | 16849 ft | 300 kts | 1° |
| 2026-05-05 09:45 | 55.35002 | -3.19628 | 16492 ft | 298 kts | 1° |
| 2026-05-05 09:45 | 55.37027 | -3.19306 | 15949 ft | 295 kts | 1° |
| 2026-05-05 09:46 | 55.39058 | -3.18986 | 15444 ft | 292 kts | 1° |
| 2026-05-05 09:46 | 55.41068 | -3.18669 | 14947 ft | 289 kts | 1° |
| 2026-05-05 09:46 | 55.43059 | -3.18359 | 14444 ft | 286 kts | 1° |
| 2026-05-05 09:46 | 55.45028 | -3.18053 | 13963 ft | 283 kts | 1° |
| 2026-05-05 09:47 | 55.46984 | -3.17748 | 13438 ft | 280 kts | 1° |
| 2026-05-05 09:47 | 55.48915 | -3.17449 | 12901 ft | 278 kts | 1° |
| 2026-05-05 09:47 | 55.50829 | -3.17149 | 12374 ft | 275 kts | 1° |
| 2026-05-05 09:47 | 55.52727 | -3.16849 | 11825 ft | 273 kts | 2° |
| 2026-05-05 09:48 | 55.54634 | -3.16550 | 11279 ft | 270 kts | 2° |
| 2026-05-05 09:48 | 55.56475 | -3.16263 | 10775 ft | 268 kts | 2° |
| 2026-05-05 09:48 | 55.58322 | -3.15971 | 10241 ft | 265 kts | 2° |
| 2026-05-05 09:48 | 55.60155 | -3.15678 | 9725 ft | 263 kts | 2° |
| 2026-05-05 09:49 | 55.61970 | -3.15387 | 9179 ft | 261 kts | 2° |
| 2026-05-05 09:49 | 55.63763 | -3.15102 | 8627 ft | 257 kts | 3° |
| 2026-05-05 09:49 | 55.65541 | -3.14823 | 8082 ft | 254 kts | 3° |
| 2026-05-05 09:49 | 55.67273 | -3.14772 | 7649 ft | 246 kts | 347° |
| 2026-05-05 09:50 | 55.68825 | -3.15961 | 7246 ft | 245 kts | 321° |
| 2026-05-05 09:50 | 55.69887 | -3.18274 | 6925 ft | 244 kts | 294° |
| 2026-05-05 09:50 | 55.70236 | -3.21226 | 6871 ft | 248 kts | 268° |
| 2026-05-05 09:50 | 55.69859 | -3.24202 | 6813 ft | 249 kts | 253° |
| 2026-05-05 09:51 | 55.69331 | -3.27124 | 6757 ft | 249 kts | 253° |
| 2026-05-05 09:51 | 55.68800 | -3.30045 | 6698 ft | 249 kts | 253° |
| 2026-05-05 09:51 | 55.68271 | -3.32963 | 6632 ft | 249 kts | 253° |
| 2026-05-05 09:51 | 55.67740 | -3.35888 | 6563 ft | 249 kts | 253° |
| 2026-05-05 09:52 | 55.67209 | -3.38802 | 6448 ft | 249 kts | 253° |
| 2026-05-05 09:52 | 55.66676 | -3.41715 | 6358 ft | 248 kts | 253° |
| 2026-05-05 09:52 | 55.66140 | -3.44627 | 6288 ft | 248 kts | 253° |
| 2026-05-05 09:52 | 55.65605 | -3.47531 | 6211 ft | 248 kts | 253° |
| 2026-05-05 09:53 | 55.65072 | -3.50428 | 6132 ft | 248 kts | 253° |
| 2026-05-05 09:53 | 55.64784 | -3.53351 | 6007 ft | 235 kts | 273° |
| 2026-05-05 09:53 | 55.65070 | -3.56103 | 5918 ft | 222 kts | 293° |
| 2026-05-05 09:53 | 55.65838 | -3.58462 | 5809 ft | 221 kts | 312° |
| 2026-05-05 09:54 | 55.66925 | -3.60377 | 5710 ft | 221 kts | 318° |
| 2026-05-05 09:54 | 55.68054 | -3.62217 | 5591 ft | 220 kts | 319° |
| 2026-05-05 09:54 | 55.69188 | -3.64030 | 5478 ft | 220 kts | 320° |
| 2026-05-05 09:54 | 55.70357 | -3.65770 | 5356 ft | 219 kts | 322° |
| 2026-05-05 09:55 | 55.71543 | -3.67476 | 5243 ft | 219 kts | 322° |
| 2026-05-05 09:55 | 55.72732 | -3.69176 | 5135 ft | 219 kts | 322° |
| 2026-05-05 09:55 | 55.73916 | -3.70873 | 5026 ft | 219 kts | 322° |
| 2026-05-05 09:55 | 55.75099 | -3.72574 | 4906 ft | 219 kts | 322° |
| 2026-05-05 09:56 | 55.76231 | -3.74342 | 4794 ft | 214 kts | 318° |
| 2026-05-05 09:56 | 55.77257 | -3.76138 | 4689 ft | 205 kts | 316° |
| 2026-05-05 09:56 | 55.78317 | -3.77709 | 4595 ft | 194 kts | 335° |
| 2026-05-05 09:56 | 55.79600 | -3.78234 | 4514 ft | 191 kts | 3° |
| 2026-05-05 09:57 | 55.80880 | -3.77563 | 4424 ft | 191 kts | 32° |
| 2026-05-05 09:57 | 55.81787 | -3.75890 | 4350 ft | 193 kts | 57° |
| 2026-05-05 09:57 | 55.82484 | -3.73855 | 4249 ft | 192 kts | 57° |
| 2026-05-05 09:57 | 55.83185 | -3.71818 | 4142 ft | 192 kts | 57° |
| 2026-05-05 09:58 | 55.83877 | -3.69805 | 4091 ft | 186 kts | 57° |
| 2026-05-05 09:58 | 55.84529 | -3.67908 | 3935 ft | 175 kts | 57° |
| 2026-05-05 09:58 | 55.85149 | -3.66101 | 3722 ft | 168 kts | 56° |
| 2026-05-05 09:58 | 55.85738 | -3.64386 | 3524 ft | 156 kts | 56° |
| 2026-05-05 09:59 | 55.86294 | -3.62766 | 3314 ft | 147 kts | 55° |
| 2026-05-05 09:59 | 55.86808 | -3.61264 | 3116 ft | 139 kts | 56° |
| 2026-05-05 09:59 | 55.87318 | -3.59780 | 2931 ft | 141 kts | 56° |
| 2026-05-05 09:59 | 55.87821 | -3.58309 | 2731 ft | 140 kts | 55° |
| 2026-05-05 10:00 | 55.88329 | -3.56825 | 2546 ft | 140 kts | 55° |
| 2026-05-05 10:00 | 55.88836 | -3.55344 | 2343 ft | 139 kts | 55° |
| 2026-05-05 10:00 | 55.89339 | -3.53873 | 2173 ft | 139 kts | 54° |
| 2026-05-05 10:00 | 55.89840 | -3.52405 | 1978 ft | 139 kts | 56° |
| 2026-05-05 10:01 | 55.90341 | -3.50939 | 1795 ft | 139 kts | 56° |
| 2026-05-05 10:01 | 55.90841 | -3.49471 | 1599 ft | 138 kts | 56° |
| 2026-05-05 10:01 | 55.91341 | -3.48008 | 1415 ft | 138 kts | 57° |
| 2026-05-05 10:01 | 55.91835 | -3.46540 | 1231 ft | 138 kts | 58° |
| 2026-05-05 10:02 | 55.92331 | -3.45083 | 1037 ft | 137 kts | 57° |
| 2026-05-05 10:02 | 55.92814 | -3.43613 | 832 ft | 137 kts | 58° |
| 2026-05-05 10:02 | 55.93323 | -3.42178 | 653 ft | 136 kts | 55° |
| 2026-05-05 10:02 | 55.93813 | -3.40720 | 425 ft | 136 kts | 57° |
| 2026-05-05 10:03 | 55.94308 | -3.39282 | 236 ft | 137 kts | 58° |
| 2026-05-05 10:03 | 55.94797 | -3.37849 | 122 ft | 129 kts | 57° |
| 2026-05-05 10:03 | 55.95193 | -3.36673 | 114 ft | 87 kts | 57° |
| 2026-05-05 10:03 | 55.95417 | -3.36018 | 106 ft | 33 kts | 59° |
| 2026-05-05 10:04 | 55.95506 | -3.35752 | 109 ft | 23 kts | 58° |
| 2026-05-05 10:04 | 55.95559 | -3.35520 | 108 ft | 15 kts | 117° |
| 2026-05-05 10:04 | 55.95489 | -3.35429 | 108 ft | 5 kts | 148° |
| 2026-05-05 10:04 | 55.95466 | -3.35403 | 109 ft | 2 kts | 148° |